Time;durP1;ratioP1;P1;durP2;ratioP2;P2;SDS_P1;SDS_P2;PMS_P1;PMS_P2;Temp;Humidity;BMP_temperature;BMP_pressure;BME280_temperature;BME280_humidity;BME280_pressure;Samples;Min_cycle;Max_cycle;Signal;HPM_P1;HPM_P2
2023/06/24 00:01:16;;;;;;;2.67;2.47;;;21.90;89.90;;;22.47;nan;101431.34;4990697;28;20646;-70
2023/06/24 00:03:46;;;;;;;1.90;1.80;;;21.90;90.10;;;22.51;nan;101434.50;4992180;28;20652;-68
2023/06/24 00:06:18;;;;;;;1.97;1.87;;;21.90;90.30;;;22.49;nan;101439.16;4991418;28;20708;-68
2023/06/24 00:08:46;;;;;;;2.20;2.10;;;21.90;90.40;;;22.50;nan;101432.84;4979016;28;20638;-69
2023/06/24 00:11:13;;;;;;;2.67;2.47;;;21.90;90.60;;;22.51;nan;101437.97;5007632;28;20649;-68
2023/06/24 00:13:42;;;;;;;2.60;2.40;;;22.00;90.70;;;22.54;nan;101439.47;4991206;28;20634;-69
2023/06/24 00:16:10;;;;;;;3.90;2.53;;;21.90;90.90;;;22.53;nan;101427.19;4990551;28;20678;-69
2023/06/24 00:18:41;;;;;;;2.50;2.30;;;22.00;91.00;;;22.53;nan;101432.50;4990422;28;20689;-67
2023/06/24 00:21:08;;;;;;;2.77;2.47;;;22.00;91.20;;;22.54;nan;101435.00;4988720;28;20610;-67
2023/06/24 00:23:35;;;;;;;2.70;2.50;;;21.90;91.30;;;22.53;nan;101429.84;4990684;28;20615;-68
2023/06/24 00:26:02;;;;;;;3.10;2.60;;;21.90;91.40;;;22.55;nan;101435.84;4992757;28;20670;-69
2023/06/24 00:28:29;;;;;;;2.70;2.50;;;21.90;91.60;;;22.54;nan;101435.00;5003567;28;21213;-68
2023/06/24 00:30:56;;;;;;;6.30;2.63;;;22.00;91.70;;;22.57;nan;101426.69;4992393;28;20637;-70
2023/06/24 00:33:23;;;;;;;2.47;2.37;;;22.00;91.70;;;22.59;nan;101431.88;4992639;28;21194;-67
2023/06/24 00:35:50;;;;;;;2.57;2.40;;;22.00;91.80;;;22.59;nan;101435.38;4992062;28;20665;-68
2023/06/24 00:38:17;;;;;;;3.73;3.30;;;22.00;92.00;;;22.56;nan;101438.31;5011848;28;20602;-68
2023/06/24 00:40:46;;;;;;;2.63;2.43;;;22.00;92.30;;;22.52;nan;101436.16;4994218;28;20629;-69
2023/06/24 00:43:13;;;;;;;3.90;2.37;;;21.90;92.30;;;22.53;nan;101437.84;5010663;28;20664;-68
2023/06/24 00:45:40;;;;;;;3.47;2.40;;;21.90;92.40;;;22.53;nan;101441.31;5011446;28;20638;-67
2023/06/24 00:48:07;;;;;;;2.50;2.30;;;21.90;92.60;;;22.51;nan;101439.84;4995917;28;20653;-69
2023/06/24 00:50:36;;;;;;;3.10;2.60;;;21.90;92.70;;;22.52;nan;101434.34;4986761;28;20635;-68
2023/06/24 00:53:03;;;;;;;2.47;2.30;;;22.00;92.90;;;22.49;nan;101439.97;4989532;28;20642;-67
2023/06/24 00:55:30;;;;;;;2.33;2.13;;;21.90;93.00;;;22.46;nan;101437.66;4988830;28;20685;-68
2023/06/24 00:57:59;;;;;;;2.50;2.30;;;21.90;93.00;;;22.44;nan;101439.66;4990258;28;20618;-68
2023/06/24 01:00:26;;;;;;;2.87;2.53;;;21.90;93.10;;;22.40;nan;101443.66;4968386;28;20642;-69
2023/06/24 01:02:53;;;;;;;3.30;2.73;;;21.80;93.10;;;22.37;nan;101450.13;4970812;28;20649;-68
2023/06/24 01:05:23;;;;;;;7.43;2.70;;;21.80;93.10;;;22.31;nan;101442.84;4968641;28;20654;-68
2023/06/24 01:07:55;;;;;;;2.00;1.90;;;21.80;93.20;;;22.29;nan;101441.34;4988757;28;20646;-68
2023/06/24 01:10:23;;;;;;;2.90;2.70;;;21.70;93.30;;;22.28;nan;101442.31;4972256;28;20620;-68
2023/06/24 01:12:50;;;;;;;2.60;2.40;;;21.70;93.30;;;22.24;nan;101441.84;5007294;28;21187;-70
2023/06/24 01:15:20;;;;;;;3.77;2.57;;;21.70;93.50;;;22.21;nan;101438.69;4989361;28;21262;-69
2023/06/24 01:18:12;;;;;;;2.50;2.33;;;21.70;93.60;;;22.19;nan;101443.34;4960169;28;20633;-66
2023/06/24 01:21:08;;;;;;;2.17;2.07;;;21.70;93.70;;;22.17;nan;101447.97;4990484;28;20653;-69
2023/06/24 01:23:41;;;;;;;2.90;2.70;;;21.60;93.80;;;22.15;nan;101455.28;4972992;28;20649;-66
2023/06/24 01:26:34;;;;;;;2.70;2.30;;;21.60;93.90;;;22.14;nan;101458.94;4976220;28;20660;-69
2023/06/24 01:29:23;;;;;;;2.87;2.40;;;21.60;94.00;;;22.07;nan;101453.44;4989692;28;20625;-69
2023/06/24 01:32:10;;;;;;;1.73;1.63;;;21.50;94.00;;;22.05;nan;101449.28;4973220;28;21178;-68
2023/06/24 01:35:00;;;;;;;2.20;2.10;;;21.50;94.20;;;22.04;nan;101452.97;4991865;28;20637;-67
2023/06/24 01:37:47;;;;;;;2.70;2.23;;;21.50;94.30;;;21.97;nan;101444.81;4992030;28;20669;-67
2023/06/24 01:40:40;;;;;;;2.33;2.10;;;21.50;94.20;;;21.89;nan;101449.28;4987638;28;20710;-67
2023/06/24 01:43:09;;;;;;;2.00;1.90;;;21.40;94.30;;;21.84;nan;101447.09;4981975;28;20618;-67
2023/06/24 01:45:49;;;;;;;2.13;2.00;;;21.30;94.60;;;21.77;nan;101451.38;5005252;28;20667;-67
2023/06/24 01:48:20;;;;;;;5.27;2.23;;;21.30;94.80;;;21.67;nan;101450.69;4976265;28;21158;-67
2023/06/24 01:51:03;;;;;;;1.83;1.73;;;21.10;95.10;;;21.52;nan;101447.84;4992849;28;21000;-67
2023/06/24 01:53:38;;;;;;;2.63;2.27;;;21.00;95.60;;;21.46;nan;101453.78;4987263;28;21177;-67
2023/06/24 01:56:10;;;;;;;2.20;2.00;;;20.90;96.20;;;21.43;nan;101448.78;4986125;28;20678;-69
2023/06/24 01:58:38;;;;;;;2.43;2.30;;;20.90;96.30;;;21.40;nan;101449.09;4953759;28;20611;-71
2023/06/24 02:01:05;;;;;;;2.30;2.10;;;20.90;96.70;;;21.39;nan;101452.75;4953486;28;20623;-68
2023/06/24 02:03:34;;;;;;;2.20;2.10;;;20.90;96.90;;;21.37;nan;101454.75;4974447;28;20630;-68
2023/06/24 02:06:02;;;;;;;2.60;2.40;;;20.80;97.20;;;21.37;nan;101454.75;4988343;28;20670;-69
2023/06/24 02:08:36;;;;;;;3.40;2.90;;;20.80;97.50;;;21.43;nan;101454.09;4989201;28;21550;-72
2023/06/24 02:11:05;;;;;;;2.00;1.90;;;20.90;97.70;;;21.47;nan;101451.94;4986815;28;20641;-67
2023/06/24 02:13:35;;;;;;;4.27;2.83;;;20.90;97.70;;;21.51;nan;101447.97;4988151;28;21464;-67
2023/06/24 02:16:06;;;;;;;2.83;2.63;;;21.00;97.90;;;21.53;nan;101449.47;4988135;28;20666;-68
2023/06/24 02:18:35;;;;;;;3.97;2.83;;;21.00;97.90;;;21.57;nan;101445.50;4973797;28;20598;-67
2023/06/24 02:21:04;;;;;;;3.70;2.60;;;21.00;97.90;;;21.61;nan;101444.19;4993221;28;20631;-68
2023/06/24 02:23:33;;;;;;;2.80;2.53;;;21.00;98.10;;;21.64;nan;101435.91;4992177;28;20638;-68
2023/06/24 02:26:01;;;;;;;3.43;3.00;;;21.10;98.10;;;21.70;nan;101433.59;4988797;28;21236;-70
2023/06/24 02:28:30;;;;;;;2.37;2.23;;;21.10;98.00;;;21.67;nan;101433.91;4993250;28;20974;-67
2023/06/24 02:30:58;;;;;;;2.80;2.60;;;21.10;98.10;;;21.61;nan;101435.41;4989231;28;20633;-68
2023/06/24 02:33:26;;;;;;;3.93;2.83;;;21.10;98.20;;;21.54;nan;101437.88;4979824;28;20773;-68
2023/06/24 02:35:53;;;;;;;2.83;2.47;;;21.00;98.20;;;21.44;nan;101442.50;4994876;28;20732;-70
2023/06/24 02:38:20;;;;;;;3.80;2.80;;;20.90;98.50;;;21.36;nan;101446.94;4979507;28;20814;-68
2023/06/24 02:40:49;;;;;;;2.97;2.77;;;20.90;98.80;;;21.21;nan;101446.69;4992073;28;20607;-68
2023/06/24 02:43:18;;;;;;;3.90;3.60;;;20.70;98.90;;;21.08;nan;101442.84;4992670;28;20626;-68
2023/06/24 02:45:47;;;;;;;3.20;2.87;;;20.60;99.40;;;20.99;nan;101441.94;4993460;28;20666;-70
2023/06/24 02:48:15;;;;;;;5.20;3.50;;;20.50;99.90;;;20.96;nan;101444.88;4993112;28;20625;-69
2023/06/24 02:50:44;;;;;;;4.20;3.20;;;20.50;99.90;;;20.86;nan;101447.66;4997571;28;21220;-69
2023/06/24 02:53:12;;;;;;;10.83;3.20;;;20.40;99.90;;;20.85;nan;101450.47;4992956;28;21251;-68
2023/06/24 02:55:42;;;;;;;3.23;2.93;;;20.40;99.90;;;20.76;nan;101452.22;4993576;28;20727;-70
2023/06/24 02:58:10;;;;;;;2.87;2.67;;;20.30;99.90;;;20.75;nan;101449.75;4996647;28;20622;-71
2023/06/24 03:00:37;;;;;;;4.70;3.30;;;20.30;99.90;;;20.77;nan;101451.25;4988247;28;20635;-68
2023/06/24 03:03:06;;;;;;;3.70;3.33;;;20.20;99.90;;;20.81;nan;101446.47;4994924;28;20625;-69
2023/06/24 03:05:34;;;;;;;5.80;3.63;;;20.30;99.90;;;20.84;nan;101446.16;4973316;28;20662;-69
2023/06/24 03:08:05;;;;;;;3.07;2.63;;;20.30;99.90;;;20.90;nan;101445.53;4976244;28;20636;-69
2023/06/24 03:10:32;;;;;;;3.60;3.10;;;20.40;99.80;;;20.96;nan;101449.34;4975170;28;20638;-68
2023/06/24 03:12:59;;;;;;;3.40;2.63;;;20.40;99.80;;;20.95;nan;101453.00;4993520;28;20599;-68
2023/06/24 03:15:29;;;;;;;3.97;3.07;;;20.50;99.50;;;20.96;nan;101449.34;4991026;28;20682;-68
2023/06/24 03:17:56;;;;;;;4.00;2.97;;;20.50;99.60;;;20.93;nan;101449.69;5005793;28;20642;-68
2023/06/24 03:20:23;;;;;;;3.30;3.00;;;20.50;99.30;;;20.86;nan;101450.31;4998055;28;20629;-68
2023/06/24 03:22:52;;;;;;;4.17;3.00;;;20.40;99.30;;;20.75;nan;101442.63;4972774;28;20618;-68
2023/06/24 03:25:19;;;;;;;3.60;3.20;;;20.30;99.70;;;20.75;nan;101458.53;4990921;28;20658;-69
2023/06/24 03:27:46;;;;;;;3.07;2.80;;;20.20;99.90;;;20.71;nan;101456.34;4991021;28;20646;-70
2023/06/24 03:30:15;;;;;;;3.70;3.40;;;20.30;99.70;;;20.59;nan;101457.59;4993384;28;20622;-68
2023/06/24 03:32:46;;;;;;;2.80;2.50;;;20.20;99.80;;;20.54;nan;101457.22;4975554;28;20657;-69
2023/06/24 03:35:14;;;;;;;3.43;3.03;;;20.10;99.90;;;20.58;nan;101466.53;4992108;28;20658;-68
2023/06/24 03:37:41;;;;;;;2.80;2.60;;;20.10;99.90;;;20.63;nan;101458.94;5005749;28;20682;-67
2023/06/24 03:40:08;;;;;;;3.27;3.00;;;20.10;99.90;;;20.67;nan;101455.00;5012214;28;21305;-68
2023/06/24 03:42:36;;;;;;;4.00;3.60;;;20.20;99.90;;;20.65;nan;101449.00;4999760;28;20641;-68
2023/06/24 03:45:04;;;;;;;3.43;3.17;;;20.20;99.90;;;20.65;nan;101460.47;4991667;28;20662;-68
2023/06/24 03:47:31;;;;;;;3.97;3.57;;;20.20;99.90;;;20.73;nan;101465.81;4989654;28;21228;-69
2023/06/24 03:49:58;;;;;;;3.00;2.70;;;20.20;99.90;;;20.77;nan;101466.31;4974625;28;20630;-67
2023/06/24 03:52:25;;;;;;;3.17;2.97;;;20.20;99.90;;;20.82;nan;101462.22;4990723;28;20715;-68
2023/06/24 03:54:53;;;;;;;2.97;2.73;;;20.30;99.90;;;20.93;nan;101460.31;4991306;28;20650;-68
2023/06/24 03:57:20;;;;;;;8.53;3.17;;;20.40;99.90;;;21.05;nan;101459.91;4990458;28;20692;-69
2023/06/24 03:59:47;;;;;;;2.90;2.73;;;20.50;99.90;;;21.19;nan;101466.44;4991505;28;20634;-67
2023/06/24 04:02:15;;;;;;;2.83;2.60;;;20.60;99.80;;;21.31;nan;101468.66;4991003;28;20631;-68
2023/06/24 04:04:42;;;;;;;3.80;3.17;;;20.80;99.60;;;21.43;nan;101464.72;4987705;28;20613;-68
2023/06/24 04:07:09;;;;;;;3.43;2.93;;;20.90;99.30;;;21.44;nan;101460.25;4989791;28;20641;-67
2023/06/24 04:09:36;;;;;;;5.80;3.50;;;21.00;99.20;;;21.46;nan;101469.72;4991300;28;20994;-67
2023/06/24 04:12:04;;;;;;;3.77;3.20;;;21.00;99.20;;;21.59;nan;101462.09;4970107;28;21004;-68
2023/06/24 04:14:31;;;;;;;3.43;3.13;;;21.00;99.20;;;21.73;nan;101473.94;4975472;28;21186;-68
2023/06/24 04:16:58;;;;;;;3.40;3.10;;;21.20;99.00;;;21.78;nan;101470.81;4981096;28;21045;-68
2023/06/24 04:19:25;;;;;;;2.90;2.70;;;21.30;98.70;;;21.83;nan;101481.81;4991530;28;20653;-68
2023/06/24 04:21:52;;;;;;;3.40;2.50;;;21.30;98.70;;;21.89;nan;101478.50;4989940;28;21217;-69
2023/06/24 04:24:19;;;;;;;2.90;2.70;;;21.40;98.70;;;21.93;nan;101482.50;4985338;28;20627;-67
2023/06/24 04:26:46;;;;;;;3.80;3.43;;;21.40;98.70;;;22.01;nan;101485.16;4985998;28;20670;-68
2023/06/24 04:29:12;;;;;;;3.90;2.87;;;21.50;98.60;;;22.19;nan;101488.53;4989485;28;20638;-68
2023/06/24 04:31:39;;;;;;;3.40;3.10;;;21.70;98.60;;;22.42;nan;101486.03;4991568;28;20594;-68
2023/06/24 04:34:06;;;;;;;3.30;3.00;;;21.90;98.30;;;22.67;nan;101487.72;4989521;28;20622;-67
2023/06/24 04:36:35;;;;;;;3.27;2.90;;;22.10;98.10;;;22.87;nan;101502.34;4991234;28;20678;-69
2023/06/24 04:39:02;;;;;;;3.53;3.20;;;22.30;97.60;;;22.97;nan;101505.63;4990665;28;20673;-68
2023/06/24 04:41:29;;;;;;;3.53;3.00;;;22.40;97.30;;;23.09;nan;101499.78;4994385;28;20637;-68
2023/06/24 04:43:56;;;;;;;3.27;2.83;;;22.50;97.20;;;23.17;nan;101506.09;5001469;28;21166;-67
2023/06/24 04:46:23;;;;;;;3.17;2.90;;;22.60;97.00;;;23.24;nan;101499.06;4989484;28;20665;-67
2023/06/24 04:48:50;;;;;;;5.77;3.63;;;22.70;96.90;;;23.39;nan;101500.03;4975596;28;20626;-68
2023/06/24 04:51:17;;;;;;;4.30;3.90;;;22.80;96.80;;;23.57;nan;101504.16;4990528;28;20602;-68
2023/06/24 04:53:44;;;;;;;4.93;3.60;;;23.00;96.60;;;23.66;nan;101502.28;4987520;28;20677;-67
2023/06/24 04:56:11;;;;;;;3.60;3.30;;;23.10;96.50;;;23.73;nan;101505.88;5000351;28;20669;-67
2023/06/24 04:58:38;;;;;;;4.23;3.73;;;23.20;96.40;;;23.79;nan;101508.69;4998851;28;20653;-68
2023/06/24 05:01:05;;;;;;;4.20;3.40;;;23.30;96.40;;;23.86;nan;101499.00;4986539;28;20622;-67
2023/06/24 05:03:32;;;;;;;4.17;3.77;;;23.40;96.50;;;24.00;nan;101508.06;4991877;28;20629;-68
2023/06/24 05:05:59;;;;;;;3.30;3.07;;;23.50;96.40;;;24.18;nan;101503.31;4990164;28;21252;-67
2023/06/24 05:08:26;;;;;;;3.90;3.60;;;23.60;96.30;;;24.34;nan;101508.50;4972001;28;21018;-68
2023/06/24 05:10:53;;;;;;;4.30;3.80;;;23.80;96.10;;;24.52;nan;101516.22;5006191;28;20621;-68
2023/06/24 05:13:23;;;;;;;4.47;4.00;;;23.90;95.90;;;24.74;nan;101518.06;5000424;28;20653;-68
2023/06/24 05:15:50;;;;;;;3.57;3.30;;;24.20;95.70;;;24.98;nan;101514.34;4989168;28;21442;-68
2023/06/24 05:18:17;;;;;;;3.90;3.50;;;24.40;95.60;;;25.18;nan;101524.28;4990043;28;20611;-68
2023/06/24 05:20:44;;;;;;;5.97;4.53;;;24.60;95.00;;;25.38;nan;101520.03;4988329;28;20635;-68
2023/06/24 05:23:11;;;;;;;6.27;4.40;;;24.80;95.00;;;25.48;nan;101516.28;4991122;28;21099;-68
2023/06/24 05:25:38;;;;;;;4.43;4.07;;;24.90;94.70;;;25.70;nan;101518.84;4984869;28;20670;-67
2023/06/24 05:28:05;;;;;;;3.97;3.57;;;25.10;94.40;;;25.87;nan;101528.31;4981931;28;20627;-68
2023/06/24 05:30:32;;;;;;;4.17;3.73;;;25.30;94.20;;;25.94;nan;101531.88;4988254;28;20631;-68
2023/06/24 05:32:59;;;;;;;6.70;4.50;;;25.40;93.70;;;26.15;nan;101531.94;4988015;28;20614;-68
2023/06/24 05:35:26;;;;;;;4.53;4.07;;;25.50;93.50;;;26.39;nan;101529.91;5006304;28;20657;-68
2023/06/24 05:37:53;;;;;;;6.07;4.37;;;25.80;93.20;;;26.56;nan;101528.63;4995013;28;21051;-67
2023/06/24 05:40:20;;;;;;;4.83;4.27;;;26.00;93.00;;;26.69;nan;101526.06;4998663;28;20634;-67
2023/06/24 05:42:47;;;;;;;5.37;3.77;;;26.10;92.60;;;26.84;nan;101524.16;4989386;28;20618;-68
2023/06/24 05:45:14;;;;;;;5.20;3.93;;;26.30;92.40;;;26.96;nan;101530.59;4989578;28;21148;-68
2023/06/24 05:47:42;;;;;;;6.30;4.10;;;26.40;92.00;;;27.11;nan;101534.00;4989078;28;21325;-68
2023/06/24 05:50:09;;;;;;;3.80;3.50;;;26.60;91.80;;;27.18;nan;101532.22;5001759;28;20637;-68
2023/06/24 05:52:36;;;;;;;5.17;4.13;;;26.70;91.10;;;27.24;nan;101536.78;4988610;28;20706;-68
2023/06/24 05:55:03;;;;;;;6.10;4.03;;;26.80;90.70;;;27.41;nan;101540.81;4991165;28;20665;-69
2023/06/24 05:57:31;;;;;;;5.53;4.47;;;26.80;90.60;;;27.68;nan;101537.22;4993030;28;20666;-67
2023/06/24 05:59:57;;;;;;;3.30;3.00;;;27.10;90.20;;;27.91;nan;101542.28;4994416;28;21114;-68
2023/06/24 06:02:25;;;;;;;4.00;3.53;;;27.30;89.40;;;28.04;nan;101533.47;4988388;28;20638;-68
2023/06/24 06:04:52;;;;;;;3.77;3.43;;;27.50;88.50;;;28.08;nan;101545.47;4986371;28;20672;-67
2023/06/24 06:07:19;;;;;;;4.77;3.97;;;27.60;87.90;;;28.21;nan;101540.97;4982895;28;20633;-69
2023/06/24 06:09:46;;;;;;;6.70;4.70;;;27.60;87.70;;;28.49;nan;101539.97;4984558;28;20634;-68
2023/06/24 06:12:13;;;;;;;4.30;2.83;;;27.90;87.10;;;28.61;nan;101541.84;4987039;28;20633;-68
2023/06/24 06:14:40;;;;;;;4.70;4.00;;;28.00;85.80;;;28.86;nan;101545.56;4966372;28;20654;-67
2023/06/24 06:17:10;;;;;;;5.60;4.10;;;28.20;85.60;;;29.31;nan;101548.41;4986000;28;20678;-68
2023/06/24 06:19:39;;;;;;;3.57;3.27;;;28.60;85.00;;;29.85;nan;101548.88;4984877;28;20626;-67
2023/06/24 06:22:07;;;;;;;4.50;3.30;;;29.10;83.40;;;30.03;nan;101548.97;4988188;28;20622;-67
2023/06/24 06:24:34;;;;;;;5.40;4.47;;;29.40;81.50;;;30.30;nan;101553.22;4968134;28;20653;-70
2023/06/24 06:27:01;;;;;;;5.60;4.63;;;29.60;80.70;;;30.46;nan;101555.38;4989083;28;20634;-66
2023/06/24 06:29:28;;;;;;;6.43;5.00;;;29.90;79.20;;;30.81;nan;101546.81;4988140;28;20642;-67
2023/06/24 06:31:56;;;;;;;9.17;5.23;;;30.20;78.40;;;31.23;nan;101551.41;4988488;28;20722;-69
2023/06/24 06:34:24;;;;;;;6.10;4.90;;;30.60;77.10;;;31.71;nan;101554.19;4985559;28;20669;-70
2023/06/24 06:36:51;;;;;;;5.63;4.87;;;31.00;75.80;;;32.24;nan;101555.16;4988204;28;20693;-68
2023/06/24 06:39:18;;;;;;;7.10;5.13;;;31.50;74.30;;;32.75;nan;101552.69;4994386;28;20626;-68
2023/06/24 06:41:45;;;;;;;4.13;3.80;;;32.00;72.50;;;33.07;nan;101555.09;4996353;28;20638;-68
2023/06/24 06:44:11;;;;;;;5.53;4.40;;;32.40;71.10;;;33.63;nan;101549.81;4991296;28;20641;-67
2023/06/24 06:46:38;;;;;;;3.87;3.53;;;32.90;69.70;;;33.94;nan;101557.50;4989553;28;20670;-67
2023/06/24 06:49:05;;;;;;;6.20;4.67;;;33.30;68.20;;;34.34;nan;101547.44;4986139;28;20622;-68
2023/06/24 06:51:33;;;;;;;7.33;4.30;;;33.80;67.10;;;34.96;nan;101550.88;4992700;28;20629;-68
2023/06/24 06:54:00;;;;;;;4.33;3.93;;;34.20;65.70;;;35.41;nan;101544.47;4993324;28;20641;-66
2023/06/24 06:56:28;;;;;;;4.60;3.70;;;34.70;64.10;;;35.94;nan;101552.72;4999140;28;21292;-66
2023/06/24 06:58:55;;;;;;;3.00;2.80;;;35.30;63.00;;;36.20;nan;101551.94;4990827;28;21092;-65
2023/06/24 07:01:22;;;;;;;3.23;3.03;;;35.60;61.50;;;36.53;nan;101542.72;4987428;28;20630;-64
2023/06/24 07:03:50;;;;;;;2.50;2.40;;;36.00;60.00;;;36.92;nan;101546.03;4989674;28;20722;-66
2023/06/24 07:06:20;;;;;;;2.20;2.10;;;36.40;58.20;;;37.07;nan;101546.13;4974591;28;20781;-66
2023/06/24 07:08:48;;;;;;;2.50;2.40;;;36.50;56.60;;;36.72;nan;101546.69;4991963;28;21225;-66
2023/06/24 07:11:15;;;;;;;2.30;2.20;;;36.30;56.40;;;36.91;nan;101533.53;4990693;28;20646;-67
2023/06/24 07:13:42;;;;;;;3.20;3.00;;;36.30;56.30;;;37.08;nan;101537.69;4990289;28;20638;-65
2023/06/24 07:16:09;;;;;;;3.63;2.70;;;36.50;56.00;;;37.40;nan;101544.97;4993464;28;20661;-66
2023/06/24 07:18:36;;;;;;;3.47;3.17;;;36.80;55.30;;;37.51;nan;101539.28;4972810;28;20615;-67
2023/06/24 07:21:03;;;;;;;3.10;2.87;;;36.90;55.30;;;37.69;nan;101533.38;4999263;28;20641;-67
2023/06/24 07:23:30;;;;;;;2.87;2.67;;;37.10;54.90;;;38.23;nan;101532.94;4989098;28;20648;-65
2023/06/24 07:25:57;;;;;;;3.27;3.07;;;37.50;54.60;;;38.74;nan;101527.22;4986700;28;20661;-68
2023/06/24 07:28:26;;;;;;;2.67;2.57;;;38.00;54.00;;;39.15;nan;101530.69;4992231;28;20638;-68
2023/06/24 07:30:53;;;;;;;3.60;3.40;;;38.50;53.40;;;39.79;nan;101529.84;4997590;28;20646;-66
2023/06/24 07:33:20;;;;;;;3.00;2.80;;;39.10;52.70;;;39.81;nan;101533.94;4994353;28;20622;-67
2023/06/24 07:35:47;;;;;;;2.90;2.70;;;39.40;51.90;;;40.16;nan;101532.91;4994315;28;20673;-69
2023/06/24 07:38:14;;;;;;;3.30;3.00;;;39.50;51.70;;;40.71;nan;101537.09;4991554;28;20677;-67
2023/06/24 07:40:41;;;;;;;3.63;3.23;;;40.00;51.00;;;40.87;nan;101536.69;4989740;28;20641;-67
2023/06/24 07:43:08;;;;;;;3.70;3.50;;;40.20;50.40;;;40.75;nan;101533.50;4990991;28;21087;-66
2023/06/24 07:45:35;;;;;;;3.63;3.30;;;40.40;49.80;;;41.13;nan;101528.16;4992167;28;21223;-66
2023/06/24 07:48:02;;;;;;;3.17;2.93;;;40.80;49.70;;;41.69;nan;101537.34;4991440;28;20648;-68
2023/06/24 07:50:31;;;;;;;2.87;2.70;;;41.20;49.20;;;42.04;nan;101536.81;4991542;28;21022;-67
2023/06/24 07:52:57;;;;;;;3.40;3.10;;;41.60;48.20;;;41.82;nan;101538.53;4991540;28;20642;-68
2023/06/24 07:55:24;;;;;;;3.10;3.00;;;41.40;48.10;;;42.07;nan;101540.91;4989354;28;20666;-66
2023/06/24 07:57:52;;;;;;;3.37;3.17;;;41.40;48.10;;;42.26;nan;101531.56;4987891;28;20658;-66
2023/06/24 08:00:18;;;;;;;3.57;3.37;;;41.70;47.70;;;42.26;nan;101530.72;4990998;28;21010;-67
2023/06/24 08:02:45;;;;;;;4.00;3.70;;;42.00;47.40;;;42.49;nan;101521.56;4990482;28;21019;-68
2023/06/24 08:05:13;;;;;;;3.50;3.30;;;42.10;46.80;;;42.64;nan;101526.00;4990857;28;20658;-68
2023/06/24 08:07:40;;;;;;;3.10;2.90;;;42.40;46.60;;;42.72;nan;101534.34;4989962;28;20638;-67
2023/06/24 08:10:07;;;;;;;2.77;2.63;;;42.50;46.00;;;42.61;nan;101526.59;4993922;28;20638;-68
2023/06/24 08:12:35;;;;;;;2.60;2.50;;;42.30;45.90;;;42.96;nan;101534.97;4993331;28;20651;-68
2023/06/24 08:15:05;;;;;;;3.37;3.17;;;42.60;45.50;;;43.23;nan;101536.91;4969965;28;20655;-68
2023/06/24 08:17:35;;;;;;;4.93;4.50;;;42.80;45.00;;;43.09;nan;101533.34;4981843;28;20678;-67
2023/06/24 08:20:04;;;;;;;5.40;5.00;;;42.80;44.50;;;42.80;nan;101524.56;4990434;28;20628;-66
2023/06/24 08:22:31;;;;;;;2.90;2.80;;;42.70;44.60;;;43.09;nan;101522.38;5001865;28;20613;-67
2023/06/24 08:24:59;;;;;;;3.20;3.00;;;42.80;44.50;;;43.52;nan;101520.91;4992698;28;20662;-67
2023/06/24 08:27:26;;;;;;;2.70;2.60;;;43.20;44.00;;;43.60;nan;101524.84;4997903;28;21074;-65
2023/06/24 08:29:53;;;;;;;3.30;3.10;;;43.50;43.10;;;43.51;nan;101516.53;4992777;28;21197;-67
2023/06/24 08:32:19;;;;;;;3.00;2.90;;;43.20;43.50;;;44.15;nan;101514.53;5000361;28;20633;-65
2023/06/24 08:34:47;;;;;;;3.30;3.20;;;43.70;43.20;;;44.56;nan;101521.44;4995379;28;20628;-65
2023/06/24 08:37:14;;;;;;;3.20;3.10;;;44.20;43.20;;;44.90;nan;101519.97;4994481;28;20676;-68
2023/06/24 08:39:41;;;;;;;5.27;2.97;;;44.40;42.80;;;45.23;nan;101521.25;5001222;28;20663;-67
2023/06/24 08:42:08;;;;;;;3.30;3.10;;;44.80;42.40;;;45.75;nan;101513.88;5003885;28;20637;-66
2023/06/24 08:44:35;;;;;;;3.23;3.03;;;45.20;42.30;;;46.50;nan;101518.81;5009912;28;20637;-68
2023/06/24 08:47:05;;;;;;;3.20;3.10;;;45.90;41.90;;;46.73;nan;101531.25;5002279;28;20652;-68
2023/06/24 08:49:34;;;;;;;3.30;3.10;;;46.40;41.30;;;46.32;nan;101526.34;4992097;28;20619;-68
2023/06/24 08:52:12;;;;;;;3.27;3.17;;;46.10;40.80;;;46.22;nan;101515.59;4989817;28;20652;-64
2023/06/24 08:54:43;;;;;;;2.70;2.60;;;46.10;40.60;;;46.15;nan;101514.50;4986272;28;20642;-67
2023/06/24 08:57:14;;;;;;;2.93;2.83;;;46.00;40.60;;;46.11;nan;101506.06;5000641;28;21050;-65
2023/06/24 08:59:42;;;;;;;2.37;2.27;;;45.90;40.50;;;46.72;nan;101513.91;4990614;28;20639;-68
2023/06/24 09:02:11;;;;;;;2.90;2.80;;;46.30;40.30;;;46.20;nan;101512.38;4985571;28;20640;-69
2023/06/24 09:04:38;;;;;;;2.80;2.70;;;46.00;40.10;;;45.81;nan;101510.59;4986235;28;21226;-67
2023/06/24 09:07:05;;;;;;;3.17;2.97;;;45.60;40.10;;;46.03;nan;101506.88;4989845;28;20650;-68
2023/06/24 09:09:44;;;;;;;3.30;3.20;;;45.60;39.90;;;46.16;nan;101505.06;5001645;28;20644;-67
2023/06/24 09:12:14;;;;;;;2.67;2.57;;;45.80;39.90;;;46.61;nan;101515.38;4989110;28;20635;-67
2023/06/24 09:14:47;;;;;;;3.20;2.80;;;46.10;39.80;;;47.03;nan;101501.72;4989354;28;21140;-67
2023/06/24 09:17:14;;;;;;;3.03;2.93;;;46.50;39.50;;;47.62;nan;101503.28;4970265;28;20654;-67
2023/06/24 09:19:41;;;;;;;2.37;2.37;;;47.20;39.30;;;47.31;nan;101511.13;5006252;28;20613;-67
2023/06/24 09:22:17;;;;;;;3.03;3.00;;;47.10;38.70;;;46.47;nan;101495.44;5003463;28;20211;-67
2023/06/24 09:24:48;;;;;;;3.37;3.17;;;46.30;38.90;;;46.51;nan;101498.34;4986007;28;20688;-67
2023/06/24 09:27:20;;;;;;;3.60;3.50;;;46.30;39.00;;;46.45;nan;101492.19;4987991;28;21247;-68
2023/06/24 09:29:47;;;;;;;2.60;2.60;;;46.30;39.20;;;46.68;nan;101490.84;5001190;28;20640;-67
2023/06/24 09:32:14;;;;;;;3.00;2.90;;;46.50;38.60;;;46.22;nan;101487.22;4996215;28;20633;-67
2023/06/24 09:34:41;;;;;;;2.97;2.87;;;46.30;38.70;;;45.85;nan;101477.69;4975564;28;20635;-67
2023/06/24 09:37:08;;;;;;;2.40;2.40;;;45.60;39.00;;;46.12;nan;101477.34;4988701;28;20672;-67
2023/06/24 09:39:40;;;;;;;2.47;2.47;;;45.80;38.80;;;46.35;nan;101478.75;4990997;28;20613;-67
2023/06/24 09:42:07;;;;;;;3.10;3.00;;;46.30;38.40;;;45.52;nan;101479.28;4988484;28;20622;-67
2023/06/24 09:44:35;;;;;;;3.17;2.60;;;45.50;38.80;;;45.10;nan;101467.88;4992731;28;21546;-67
2023/06/24 09:47:03;;;;;;;3.20;3.10;;;44.90;38.90;;;45.55;nan;101462.13;4986034;28;20625;-67
2023/06/24 09:49:30;;;;;;;2.40;2.40;;;45.20;39.00;;;44.66;nan;101457.84;4991124;28;20622;-67
2023/06/24 09:51:59;;;;;;;2.90;2.80;;;44.80;39.00;;;44.81;nan;101456.63;4991552;28;20640;-66
2023/06/24 09:54:28;;;;;;;3.83;3.63;;;44.50;39.10;;;44.78;nan;101448.97;4990098;28;20625;-68
2023/06/24 09:57:03;;;;;;;3.27;3.17;;;44.60;39.10;;;44.94;nan;101447.41;4980470;28;20616;-67
2023/06/24 09:59:33;;;;;;;3.30;3.17;;;44.60;39.20;;;45.10;nan;101450.53;4973680;28;20598;-67
2023/06/24 10:02:02;;;;;;;3.47;3.30;;;44.70;39.10;;;45.26;nan;101443.44;4986783;28;20661;-68
2023/06/24 10:04:31;;;;;;;3.70;3.50;;;44.80;39.30;;;44.80;nan;101444.00;4987759;28;21138;-65
2023/06/24 10:06:59;;;;;;;3.37;3.17;;;44.30;39.30;;;44.55;nan;101439.19;4969827;28;20633;-67
2023/06/24 10:09:26;;;;;;;2.90;2.80;;;43.90;39.70;;;44.17;nan;101435.25;4983410;28;20692;-67
2023/06/24 10:11:53;;;;;;;2.70;2.60;;;43.40;40.00;;;43.17;nan;101425.53;4986965;28;20626;-65
2023/06/24 10:14:20;;;;;;;2.37;2.37;;;42.50;40.40;;;41.67;nan;101417.09;4988401;28;20598;-66
2023/06/24 10:16:47;;;;;;;2.80;2.70;;;41.20;41.20;;;40.38;nan;101417.63;4985640;28;20669;-67
2023/06/24 10:19:23;;;;;;;3.03;2.83;;;39.70;42.00;;;39.01;nan;101414.19;4987626;28;20751;-68
2023/06/24 10:21:58;;;;;;;2.80;2.70;;;38.40;43.10;;;38.10;nan;101405.38;4988561;28;20634;-68
2023/06/24 10:24:41;;;;;;;3.60;3.30;;;37.40;43.80;;;37.30;nan;101394.09;4986471;28;20609;-66
2023/06/24 10:27:23;;;;;;;4.10;3.27;;;36.60;44.20;;;36.66;nan;101387.31;4989529;28;20951;-67
2023/06/24 10:29:53;;;;;;;4.77;3.20;;;36.00;44.90;;;35.83;nan;101393.47;4988137;28;20635;-67
2023/06/24 10:32:22;;;;;;;1.63;1.53;;;35.20;45.60;;;35.01;nan;101390.16;4990207;28;21243;-68